sensor_id;sensor_type;location;lat;lon;timestamp;P1;durP1;ratioP1;P2;durP2;ratioP2
52266;SDS011;38223;50.940;4.034;2022-10-17T00:00:09;11.12;;;10.08;;
52266;SDS011;38223;50.940;4.034;2022-10-17T00:02:42;8.30;;;7.47;;
52266;SDS011;38223;50.940;4.034;2022-10-17T00:05:13;8.40;;;7.78;;
52266;SDS011;38223;50.940;4.034;2022-10-17T00:07:46;10.90;;;8.13;;
52266;SDS011;38223;50.940;4.034;2022-10-17T00:10:21;8.28;;;7.47;;
52266;SDS011;38223;50.940;4.034;2022-10-17T00:12:57;8.65;;;7.85;;
52266;SDS011;38223;50.940;4.034;2022-10-17T00:15:26;13.45;;;8.83;;
52266;SDS011;38223;50.940;4.034;2022-10-17T00:17:55;9.90;;;7.80;;
52266;SDS011;38223;50.940;4.034;2022-10-17T00:20:29;9.28;;;8.03;;
52266;SDS011;38223;50.940;4.034;2022-10-17T00:23:04;9.20;;;8.25;;
52266;SDS011;38223;50.940;4.034;2022-10-17T00:25:35;9.48;;;8.63;;
52266;SDS011;38223;50.940;4.034;2022-10-17T00:28:10;9.35;;;8.55;;
52266;SDS011;38223;50.940;4.034;2022-10-17T00:30:44;9.88;;;8.33;;
52266;SDS011;38223;50.940;4.034;2022-10-17T00:33:19;13.20;;;8.15;;
52266;SDS011;38223;50.940;4.034;2022-10-17T00:35:50;10.03;;;7.85;;
52266;SDS011;38223;50.940;4.034;2022-10-17T00:38:23;9.85;;;7.75;;
52266;SDS011;38223;50.940;4.034;2022-10-17T00:40:57;9.13;;;7.70;;
52266;SDS011;38223;50.940;4.034;2022-10-17T00:43:46;12.60;;;7.83;;
52266;SDS011;38223;50.940;4.034;2022-10-17T00:46:20;9.98;;;8.48;;
52266;SDS011;38223;50.940;4.034;2022-10-17T00:48:54;8.48;;;7.78;;
52266;SDS011;38223;50.940;4.034;2022-10-17T00:51:29;9.38;;;8.18;;
52266;SDS011;38223;50.940;4.034;2022-10-17T00:54:00;9.63;;;7.72;;
52266;SDS011;38223;50.940;4.034;2022-10-17T00:56:34;7.83;;;7.08;;
52266;SDS011;38223;50.940;4.034;2022-10-17T00:59:10;8.80;;;7.42;;
52266;SDS011;38223;50.940;4.034;2022-10-17T01:01:50;13.58;;;7.72;;
52266;SDS011;38223;50.940;4.034;2022-10-17T01:04:21;8.13;;;7.42;;
52266;SDS011;38223;50.940;4.034;2022-10-17T01:06:55;8.05;;;7.25;;
52266;SDS011;38223;50.940;4.034;2022-10-17T01:09:32;7.53;;;6.80;;
52266;SDS011;38223;50.940;4.034;2022-10-17T01:12:16;11.50;;;8.48;;
52266;SDS011;38223;50.940;4.034;2022-10-17T01:17:51;16.62;;;7.85;;
52266;SDS011;38223;50.940;4.034;2022-10-17T01:26:41;7.83;;;7.22;;
52266;SDS011;38223;50.940;4.034;2022-10-17T01:29:35;8.30;;;7.50;;
52266;SDS011;38223;50.940;4.034;2022-10-17T01:32:25;8.08;;;7.28;;
52266;SDS011;38223;50.940;4.034;2022-10-17T01:35:27;7.70;;;7.20;;
52266;SDS011;38223;50.940;4.034;2022-10-17T01:38:04;9.75;;;7.47;;
52266;SDS011;38223;50.940;4.034;2022-10-17T01:40:35;8.43;;;7.62;;
52266;SDS011;38223;50.940;4.034;2022-10-17T01:46:00;7.83;;;6.90;;
52266;SDS011;38223;50.940;4.034;2022-10-17T01:48:35;8.93;;;7.30;;
52266;SDS011;38223;50.940;4.034;2022-10-17T01:51:12;10.75;;;7.70;;
52266;SDS011;38223;50.940;4.034;2022-10-17T01:53:55;8.23;;;7.20;;
52266;SDS011;38223;50.940;4.034;2022-10-17T01:56:26;7.90;;;7.20;;
52266;SDS011;38223;50.940;4.034;2022-10-17T01:59:04;10.93;;;7.22;;
52266;SDS011;38223;50.940;4.034;2022-10-17T02:01:43;8.10;;;7.35;;
52266;SDS011;38223;50.940;4.034;2022-10-17T02:04:14;7.70;;;7.10;;
52266;SDS011;38223;50.940;4.034;2022-10-17T02:06:49;8.10;;;7.25;;
52266;SDS011;38223;50.940;4.034;2022-10-17T02:09:24;8.00;;;7.30;;
52266;SDS011;38223;50.940;4.034;2022-10-17T02:20:26;8.43;;;7.08;;
52266;SDS011;38223;50.940;4.034;2022-10-17T02:23:00;8.05;;;7.17;;
52266;SDS011;38223;50.940;4.034;2022-10-17T02:25:39;10.95;;;7.55;;
52266;SDS011;38223;50.940;4.034;2022-10-17T02:28:28;8.55;;;7.85;;
52266;SDS011;38223;50.940;4.034;2022-10-17T02:31:06;7.55;;;6.90;;
52266;SDS011;38223;50.940;4.034;2022-10-17T02:33:33;8.20;;;7.35;;
52266;SDS011;38223;50.940;4.034;2022-10-17T02:36:10;8.28;;;6.97;;
52266;SDS011;38223;50.940;4.034;2022-10-17T02:38:41;7.40;;;6.80;;
52266;SDS011;38223;50.940;4.034;2022-10-17T02:41:23;10.80;;;6.67;;
52266;SDS011;38223;50.940;4.034;2022-10-17T02:43:55;7.03;;;6.53;;
52266;SDS011;38223;50.940;4.034;2022-10-17T02:46:31;10.72;;;7.78;;
52266;SDS011;38223;50.940;4.034;2022-10-17T02:49:18;8.15;;;6.87;;
52266;SDS011;38223;50.940;4.034;2022-10-17T02:52:16;9.93;;;7.17;;
52266;SDS011;38223;50.940;4.034;2022-10-17T02:57:49;9.73;;;6.75;;
52266;SDS011;38223;50.940;4.034;2022-10-17T03:00:25;7.75;;;5.87;;
52266;SDS011;38223;50.940;4.034;2022-10-17T03:02:58;8.58;;;5.85;;
52266;SDS011;38223;50.940;4.034;2022-10-17T03:05:32;9.93;;;6.58;;
52266;SDS011;38223;50.940;4.034;2022-10-17T03:08:05;9.15;;;6.20;;
52266;SDS011;38223;50.940;4.034;2022-10-17T03:10:42;7.62;;;6.30;;
52266;SDS011;38223;50.940;4.034;2022-10-17T03:13:14;6.40;;;5.80;;
52266;SDS011;38223;50.940;4.034;2022-10-17T03:15:48;6.17;;;5.65;;
52266;SDS011;38223;50.940;4.034;2022-10-17T03:18:22;6.47;;;5.95;;
52266;SDS011;38223;50.940;4.034;2022-10-17T03:20:53;6.72;;;6.12;;
52266;SDS011;38223;50.940;4.034;2022-10-17T03:23:26;6.45;;;5.78;;
52266;SDS011;38223;50.940;4.034;2022-10-17T03:25:58;7.78;;;6.17;;
52266;SDS011;38223;50.940;4.034;2022-10-17T03:28:35;8.73;;;6.00;;
52266;SDS011;38223;50.940;4.034;2022-10-17T03:31:13;7.83;;;6.30;;
52266;SDS011;38223;50.940;4.034;2022-10-17T03:33:48;7.30;;;5.80;;
52266;SDS011;38223;50.940;4.034;2022-10-17T03:36:21;7.17;;;5.25;;
52266;SDS011;38223;50.940;4.034;2022-10-17T03:39:01;9.60;;;6.15;;
52266;SDS011;38223;50.940;4.034;2022-10-17T03:41:35;7.70;;;6.65;;
52266;SDS011;38223;50.940;4.034;2022-10-17T03:44:06;10.82;;;6.35;;
52266;SDS011;38223;50.940;4.034;2022-10-17T03:46:36;7.08;;;6.47;;
52266;SDS011;38223;50.940;4.034;2022-10-17T03:49:11;6.67;;;6.17;;
52266;SDS011;38223;50.940;4.034;2022-10-17T03:51:41;6.53;;;5.92;;
52266;SDS011;38223;50.940;4.034;2022-10-17T03:54:16;12.33;;;6.33;;
52266;SDS011;38223;50.940;4.034;2022-10-17T03:56:46;7.90;;;6.15;;
52266;SDS011;38223;50.940;4.034;2022-10-17T03:59:19;7.33;;;6.33;;
52266;SDS011;38223;50.940;4.034;2022-10-17T04:01:54;9.30;;;6.33;;
52266;SDS011;38223;50.940;4.034;2022-10-17T04:04:29;6.55;;;6.03;;
52266;SDS011;38223;50.940;4.034;2022-10-17T04:06:59;6.92;;;5.87;;
52266;SDS011;38223;50.940;4.034;2022-10-17T04:09:32;7.17;;;6.28;;
52266;SDS011;38223;50.940;4.034;2022-10-17T04:12:07;8.00;;;5.80;;
52266;SDS011;38223;50.940;4.034;2022-10-17T04:14:39;7.40;;;6.35;;
52266;SDS011;38223;50.940;4.034;2022-10-17T04:17:11;6.78;;;5.35;;
52266;SDS011;38223;50.940;4.034;2022-10-17T04:19:48;8.25;;;5.92;;
52266;SDS011;38223;50.940;4.034;2022-10-17T04:22:22;6.97;;;6.30;;
52266;SDS011;38223;50.940;4.034;2022-10-17T04:24:57;6.22;;;5.72;;
52266;SDS011;38223;50.940;4.034;2022-10-17T04:27:28;10.38;;;5.95;;
52266;SDS011;38223;50.940;4.034;2022-10-17T04:30:02;7.08;;;6.28;;
52266;SDS011;38223;50.940;4.034;2022-10-17T04:32:36;6.87;;;6.35;;
52266;SDS011;38223;50.940;4.034;2022-10-17T04:35:12;6.85;;;6.25;;
52266;SDS011;38223;50.940;4.034;2022-10-17T04:37:42;8.68;;;6.12;;
52266;SDS011;38223;50.940;4.034;2022-10-17T04:40:15;6.28;;;5.78;;
52266;SDS011;38223;50.940;4.034;2022-10-17T04:42:48;6.10;;;5.60;;
52266;SDS011;38223;50.940;4.034;2022-10-17T04:45:20;6.60;;;5.90;;
52266;SDS011;38223;50.940;4.034;2022-10-17T04:47:55;7.08;;;5.95;;
52266;SDS011;38223;50.940;4.034;2022-10-17T04:50:24;8.68;;;5.72;;
52266;SDS011;38223;50.940;4.034;2022-10-17T04:52:59;6.20;;;5.60;;
52266;SDS011;38223;50.940;4.034;2022-10-17T04:55:35;7.42;;;5.70;;
52266;SDS011;38223;50.940;4.034;2022-10-17T04:58:07;6.72;;;5.67;;
52266;SDS011;38223;50.940;4.034;2022-10-17T05:00:42;10.35;;;5.83;;
52266;SDS011;38223;50.940;4.034;2022-10-17T05:03:17;6.45;;;5.45;;
52266;SDS011;38223;50.940;4.034;2022-10-17T05:05:46;7.95;;;5.53;;
52266;SDS011;38223;50.940;4.034;2022-10-17T05:08:18;6.08;;;5.47;;
52266;SDS011;38223;50.940;4.034;2022-10-17T05:10:51;8.38;;;5.83;;
52266;SDS011;38223;50.940;4.034;2022-10-17T05:13:23;9.43;;;5.50;;
52266;SDS011;38223;50.940;4.034;2022-10-17T05:15:59;12.73;;;5.65;;
52266;SDS011;38223;50.940;4.034;2022-10-17T05:18:30;9.25;;;5.47;;
52266;SDS011;38223;50.940;4.034;2022-10-17T05:21:02;7.85;;;5.72;;
52266;SDS011;38223;50.940;4.034;2022-10-17T05:23:38;8.05;;;5.75;;
52266;SDS011;38223;50.940;4.034;2022-10-17T05:26:09;10.53;;;6.12;;
52266;SDS011;38223;50.940;4.034;2022-10-17T05:28:41;8.13;;;5.67;;
52266;SDS011;38223;50.940;4.034;2022-10-17T05:31:13;8.58;;;5.72;;
52266;SDS011;38223;50.940;4.034;2022-10-17T05:33:48;8.05;;;5.25;;
52266;SDS011;38223;50.940;4.034;2022-10-17T05:36:20;7.65;;;5.25;;
52266;SDS011;38223;50.940;4.034;2022-10-17T05:38:54;10.85;;;5.42;;
52266;SDS011;38223;50.940;4.034;2022-10-17T05:41:28;6.45;;;5.35;;
52266;SDS011;38223;50.940;4.034;2022-10-17T05:44:02;7.40;;;5.55;;
52266;SDS011;38223;50.940;4.034;2022-10-17T05:46:34;8.03;;;5.25;;
52266;SDS011;38223;50.940;4.034;2022-10-17T05:49:09;9.68;;;5.45;;
52266;SDS011;38223;50.940;4.034;2022-10-17T05:51:40;7.70;;;5.37;;
52266;SDS011;38223;50.940;4.034;2022-10-17T05:54:13;8.40;;;5.60;;
52266;SDS011;38223;50.940;4.034;2022-10-17T05:56:43;9.63;;;4.92;;
52266;SDS011;38223;50.940;4.034;2022-10-17T05:59:15;11.93;;;4.92;;
52266;SDS011;38223;50.940;4.034;2022-10-17T06:01:45;8.58;;;5.35;;
52266;SDS011;38223;50.940;4.034;2022-10-17T06:04:17;8.83;;;5.10;;
52266;SDS011;38223;50.940;4.034;2022-10-17T06:06:50;8.53;;;5.00;;
52266;SDS011;38223;50.940;4.034;2022-10-17T06:09:21;7.55;;;4.62;;
52266;SDS011;38223;50.940;4.034;2022-10-17T06:11:53;6.47;;;4.97;;
52266;SDS011;38223;50.940;4.034;2022-10-17T06:14:24;12.73;;;4.97;;
52266;SDS011;38223;50.940;4.034;2022-10-17T06:16:55;6.12;;;5.10;;
52266;SDS011;38223;50.940;4.034;2022-10-17T06:19:25;12.68;;;5.25;;
52266;SDS011;38223;50.940;4.034;2022-10-17T06:21:57;10.45;;;4.62;;
52266;SDS011;38223;50.940;4.034;2022-10-17T06:24:28;7.30;;;5.33;;
52266;SDS011;38223;50.940;4.034;2022-10-17T06:26:58;6.17;;;5.45;;
52266;SDS011;38223;50.940;4.034;2022-10-17T06:29:29;11.08;;;5.60;;
52266;SDS011;38223;50.940;4.034;2022-10-17T06:31:59;9.90;;;5.85;;
52266;SDS011;38223;50.940;4.034;2022-10-17T06:34:30;9.35;;;6.60;;
52266;SDS011;38223;50.940;4.034;2022-10-17T06:36:59;21.57;;;8.70;;
52266;SDS011;38223;50.940;4.034;2022-10-17T06:39:33;10.30;;;8.48;;
52266;SDS011;38223;50.940;4.034;2022-10-17T06:42:08;12.03;;;8.30;;
52266;SDS011;38223;50.940;4.034;2022-10-17T06:44:36;10.82;;;8.20;;
52266;SDS011;38223;50.940;4.034;2022-10-17T06:47:10;15.03;;;8.33;;
52266;SDS011;38223;50.940;4.034;2022-10-17T06:49:41;11.70;;;8.70;;
52266;SDS011;38223;50.940;4.034;2022-10-17T06:52:13;11.57;;;9.63;;
52266;SDS011;38223;50.940;4.034;2022-10-17T06:54:46;9.55;;;8.35;;
52266;SDS011;38223;50.940;4.034;2022-10-17T06:57:17;10.25;;;9.20;;
52266;SDS011;38223;50.940;4.034;2022-10-17T06:59:47;10.25;;;9.05;;
52266;SDS011;38223;50.940;4.034;2022-10-17T07:02:17;9.98;;;9.13;;
52266;SDS011;38223;50.940;4.034;2022-10-17T07:04:50;10.15;;;8.83;;
52266;SDS011;38223;50.940;4.034;2022-10-17T07:07:19;10.23;;;8.60;;
52266;SDS011;38223;50.940;4.034;2022-10-17T07:09:51;11.60;;;8.33;;
52266;SDS011;38223;50.940;4.034;2022-10-17T07:12:21;10.10;;;8.05;;
52266;SDS011;38223;50.940;4.034;2022-10-17T07:14:53;8.60;;;7.70;;
52266;SDS011;38223;50.940;4.034;2022-10-17T07:17:25;7.40;;;6.75;;
52266;SDS011;38223;50.940;4.034;2022-10-17T07:19:56;9.03;;;7.33;;
52266;SDS011;38223;50.940;4.034;2022-10-17T07:22:26;12.07;;;7.90;;
52266;SDS011;38223;50.940;4.034;2022-10-17T07:25:01;10.03;;;8.03;;
52266;SDS011;38223;50.940;4.034;2022-10-17T07:27:31;14.13;;;8.50;;
52266;SDS011;38223;50.940;4.034;2022-10-17T07:30:01;10.03;;;8.43;;
52266;SDS011;38223;50.940;4.034;2022-10-17T07:32:29;14.35;;;9.10;;
52266;SDS011;38223;50.940;4.034;2022-10-17T07:35:03;11.00;;;9.65;;
52266;SDS011;38223;50.940;4.034;2022-10-17T07:40:01;10.05;;;9.10;;
52266;SDS011;38223;50.940;4.034;2022-10-17T07:42:37;10.90;;;9.80;;
52266;SDS011;38223;50.940;4.034;2022-10-17T07:45:10;13.35;;;9.55;;
52266;SDS011;38223;50.940;4.034;2022-10-17T07:47:41;11.45;;;9.13;;
52266;SDS011;38223;50.940;4.034;2022-10-17T07:50:13;9.55;;;8.48;;
52266;SDS011;38223;50.940;4.034;2022-10-17T07:53:10;10.32;;;8.38;;
52266;SDS011;38223;50.940;4.034;2022-10-17T07:55:41;9.50;;;8.18;;
52266;SDS011;38223;50.940;4.034;2022-10-17T07:58:14;9.90;;;8.70;;
52266;SDS011;38223;50.940;4.034;2022-10-17T08:03:13;11.35;;;8.70;;
52266;SDS011;38223;50.940;4.034;2022-10-17T08:05:43;9.10;;;7.65;;
52266;SDS011;38223;50.940;4.034;2022-10-17T08:08:14;10.43;;;8.15;;
52266;SDS011;38223;50.940;4.034;2022-10-17T08:10:45;10.05;;;8.30;;
52266;SDS011;38223;50.940;4.034;2022-10-17T08:13:15;9.18;;;7.25;;
52266;SDS011;38223;50.940;4.034;2022-10-17T08:15:44;11.68;;;8.30;;
52266;SDS011;38223;50.940;4.034;2022-10-17T08:18:15;7.85;;;7.05;;
52266;SDS011;38223;50.940;4.034;2022-10-17T08:20:49;9.90;;;7.55;;
52266;SDS011;38223;50.940;4.034;2022-10-17T08:23:23;8.45;;;7.55;;
52266;SDS011;38223;50.940;4.034;2022-10-17T08:25:54;12.45;;;7.97;;
52266;SDS011;38223;50.940;4.034;2022-10-17T08:28:29;10.05;;;7.80;;
52266;SDS011;38223;50.940;4.034;2022-10-17T08:31:09;7.87;;;7.17;;
52266;SDS011;38223;50.940;4.034;2022-10-17T08:33:40;9.20;;;8.25;;
52266;SDS011;38223;50.940;4.034;2022-10-17T08:36:17;8.20;;;7.05;;
52266;SDS011;38223;50.940;4.034;2022-10-17T08:38:46;9.75;;;7.00;;
52266;SDS011;38223;50.940;4.034;2022-10-17T08:41:35;21.52;;;19.40;;
52266;SDS011;38223;50.940;4.034;2022-10-17T08:47:28;10.82;;;8.33;;
52266;SDS011;38223;50.940;4.034;2022-10-17T08:49:59;9.10;;;7.92;;
52266;SDS011;38223;50.940;4.034;2022-10-17T08:55:44;8.88;;;7.97;;
52266;SDS011;38223;50.940;4.034;2022-10-17T08:58:11;9.65;;;8.20;;
52266;SDS011;38223;50.940;4.034;2022-10-17T09:00:45;8.90;;;8.03;;
52266;SDS011;38223;50.940;4.034;2022-10-17T09:03:25;15.20;;;9.15;;
52266;SDS011;38223;50.940;4.034;2022-10-17T09:09:01;11.78;;;8.40;;
52266;SDS011;38223;50.940;4.034;2022-10-17T09:11:39;11.22;;;8.33;;
52266;SDS011;38223;50.940;4.034;2022-10-17T09:22:32;11.03;;;8.13;;
52266;SDS011;38223;50.940;4.034;2022-10-17T09:25:08;8.70;;;7.70;;
52266;SDS011;38223;50.940;4.034;2022-10-17T09:27:51;10.75;;;7.62;;
52266;SDS011;38223;50.940;4.034;2022-10-17T09:33:16;11.50;;;7.78;;
52266;SDS011;38223;50.940;4.034;2022-10-17T09:35:47;14.65;;;8.20;;
52266;SDS011;38223;50.940;4.034;2022-10-17T09:38:21;10.35;;;8.20;;
52266;SDS011;38223;50.940;4.034;2022-10-17T09:40:55;11.20;;;8.35;;
52266;SDS011;38223;50.940;4.034;2022-10-17T09:43:28;9.18;;;8.35;;
52266;SDS011;38223;50.940;4.034;2022-10-17T09:46:07;8.73;;;7.92;;
52266;SDS011;38223;50.940;4.034;2022-10-17T09:48:39;11.88;;;7.90;;
52266;SDS011;38223;50.940;4.034;2022-10-17T09:51:10;9.28;;;7.95;;
52266;SDS011;38223;50.940;4.034;2022-10-17T09:53:45;8.93;;;7.62;;
52266;SDS011;38223;50.940;4.034;2022-10-17T09:56:14;8.70;;;7.85;;
52266;SDS011;38223;50.940;4.034;2022-10-17T09:58:49;9.10;;;8.30;;
52266;SDS011;38223;50.940;4.034;2022-10-17T10:01:28;10.35;;;8.63;;
52266;SDS011;38223;50.940;4.034;2022-10-17T10:04:16;9.30;;;8.40;;
52266;SDS011;38223;50.940;4.034;2022-10-17T10:07:05;8.90;;;8.00;;
52266;SDS011;38223;50.940;4.034;2022-10-17T10:09:33;9.13;;;8.13;;
52266;SDS011;38223;50.940;4.034;2022-10-17T10:12:14;11.25;;;8.18;;
52266;SDS011;38223;50.940;4.034;2022-10-17T10:14:41;10.72;;;8.30;;
52266;SDS011;38223;50.940;4.034;2022-10-17T10:19:48;10.23;;;9.23;;
52266;SDS011;38223;50.940;4.034;2022-10-17T10:22:15;12.03;;;8.83;;
52266;SDS011;38223;50.940;4.034;2022-10-17T10:30:24;13.72;;;8.63;;
52266;SDS011;38223;50.940;4.034;2022-10-17T10:32:51;12.82;;;9.50;;
52266;SDS011;38223;50.940;4.034;2022-10-17T10:38:03;10.13;;;9.13;;
52266;SDS011;38223;50.940;4.034;2022-10-17T10:40:46;13.65;;;7.97;;
52266;SDS011;38223;50.940;4.034;2022-10-17T10:43:32;8.13;;;7.05;;
52266;SDS011;38223;50.940;4.034;2022-10-17T10:46:22;7.00;;;5.97;;
52266;SDS011;38223;50.940;4.034;2022-10-17T10:48:55;7.70;;;6.72;;
52266;SDS011;38223;50.940;4.034;2022-10-17T10:51:36;13.58;;;7.40;;
52266;SDS011;38223;50.940;4.034;2022-10-17T10:54:27;6.78;;;5.87;;
52266;SDS011;38223;50.940;4.034;2022-10-17T10:56:56;9.53;;;6.35;;
52266;SDS011;38223;50.940;4.034;2022-10-17T10:59:34;5.97;;;5.58;;
52266;SDS011;38223;50.940;4.034;2022-10-17T11:02:12;5.83;;;5.22;;
52266;SDS011;38223;50.940;4.034;2022-10-17T11:04:47;5.92;;;5.40;;
52266;SDS011;38223;50.940;4.034;2022-10-17T11:07:41;5.85;;;5.10;;
52266;SDS011;38223;50.940;4.034;2022-10-17T11:10:22;5.15;;;4.70;;
52266;SDS011;38223;50.940;4.034;2022-10-17T11:16:17;6.40;;;4.80;;
52266;SDS011;38223;50.940;4.034;2022-10-17T11:18:34;5.67;;;5.17;;
52266;SDS011;38223;50.940;4.034;2022-10-17T11:21:09;7.70;;;5.10;;
52266;SDS011;38223;50.940;4.034;2022-10-17T11:26:50;7.15;;;6.53;;
52266;SDS011;38223;50.940;4.034;2022-10-17T11:29:29;7.30;;;5.47;;
52266;SDS011;38223;50.940;4.034;2022-10-17T11:32:07;7.10;;;6.40;;
52266;SDS011;38223;50.940;4.034;2022-10-17T11:34:46;7.17;;;6.42;;
52266;SDS011;38223;50.940;4.034;2022-10-17T11:37:21;11.33;;;6.50;;
52266;SDS011;38223;50.940;4.034;2022-10-17T11:39:59;7.22;;;6.35;;
52266;SDS011;38223;50.940;4.034;2022-10-17T11:42:29;6.75;;;6.10;;
52266;SDS011;38223;50.940;4.034;2022-10-17T11:45:02;7.95;;;7.00;;
52266;SDS011;38223;50.940;4.034;2022-10-17T11:52:55;8.03;;;6.50;;
52266;SDS011;38223;50.940;4.034;2022-10-17T11:55:26;9.25;;;7.17;;
52266;SDS011;38223;50.940;4.034;2022-10-17T12:12:30;7.72;;;6.30;;
52266;SDS011;38223;50.940;4.034;2022-10-17T12:18:14;7.03;;;6.17;;
52266;SDS011;38223;50.940;4.034;2022-10-17T12:20:33;7.08;;;6.28;;
52266;SDS011;38223;50.940;4.034;2022-10-17T12:25:52;7.83;;;5.53;;
52266;SDS011;38223;50.940;4.034;2022-10-17T12:34:02;12.63;;;6.47;;
52266;SDS011;38223;50.940;4.034;2022-10-17T12:49:47;7.65;;;6.00;;
52266;SDS011;38223;50.940;4.034;2022-10-17T12:55:10;9.65;;;4.70;;
52266;SDS011;38223;50.940;4.034;2022-10-17T13:00:22;6.53;;;4.60;;
52266;SDS011;38223;50.940;4.034;2022-10-17T13:03:00;5.50;;;4.12;;
52266;SDS011;38223;50.940;4.034;2022-10-17T13:05:34;6.28;;;4.62;;
52266;SDS011;38223;50.940;4.034;2022-10-17T13:08:07;6.15;;;4.10;;
52266;SDS011;38223;50.940;4.034;2022-10-17T13:10:39;4.70;;;4.30;;
52266;SDS011;38223;50.940;4.034;2022-10-17T13:13:16;6.22;;;4.10;;
52266;SDS011;38223;50.940;4.034;2022-10-17T13:15:50;8.70;;;7.90;;
52266;SDS011;38223;50.940;4.034;2022-10-17T13:18:24;10.68;;;6.58;;
52266;SDS011;38223;50.940;4.034;2022-10-17T13:20:58;9.23;;;4.60;;
52266;SDS011;38223;50.940;4.034;2022-10-17T13:23:36;7.15;;;4.35;;
52266;SDS011;38223;50.940;4.034;2022-10-17T13:26:13;5.92;;;4.50;;
52266;SDS011;38223;50.940;4.034;2022-10-17T13:31:43;7.10;;;4.15;;
52266;SDS011;38223;50.940;4.034;2022-10-17T13:34:15;9.05;;;3.50;;
52266;SDS011;38223;50.940;4.034;2022-10-17T13:36:58;6.10;;;4.05;;
52266;SDS011;38223;50.940;4.034;2022-10-17T13:39:39;6.37;;;3.87;;
52266;SDS011;38223;50.940;4.034;2022-10-17T13:42:19;6.78;;;3.85;;
52266;SDS011;38223;50.940;4.034;2022-10-17T13:44:55;7.53;;;4.20;;
52266;SDS011;38223;50.940;4.034;2022-10-17T13:47:29;5.47;;;4.70;;
52266;SDS011;38223;50.940;4.034;2022-10-17T13:50:12;4.30;;;3.75;;
52266;SDS011;38223;50.940;4.034;2022-10-17T13:52:38;4.58;;;4.15;;
52266;SDS011;38223;50.940;4.034;2022-10-17T13:55:17;5.80;;;5.30;;
52266;SDS011;38223;50.940;4.034;2022-10-17T13:57:45;6.33;;;4.72;;
52266;SDS011;38223;50.940;4.034;2022-10-17T14:00:18;7.00;;;5.95;;
52266;SDS011;38223;50.940;4.034;2022-10-17T14:02:50;4.30;;;3.77;;
52266;SDS011;38223;50.940;4.034;2022-10-17T14:05:22;6.87;;;4.30;;
52266;SDS011;38223;50.940;4.034;2022-10-17T14:07:59;4.10;;;3.67;;
52266;SDS011;38223;50.940;4.034;2022-10-17T14:10:34;6.33;;;3.95;;
52266;SDS011;38223;50.940;4.034;2022-10-17T14:13:22;6.92;;;4.15;;
52266;SDS011;38223;50.940;4.034;2022-10-17T14:15:56;6.08;;;4.42;;
52266;SDS011;38223;50.940;4.034;2022-10-17T14:18:34;4.20;;;3.80;;
52266;SDS011;38223;50.940;4.034;2022-10-17T14:21:06;6.28;;;4.35;;
52266;SDS011;38223;50.940;4.034;2022-10-17T14:23:39;6.47;;;4.53;;
52266;SDS011;38223;50.940;4.034;2022-10-17T14:26:21;4.95;;;4.20;;
52266;SDS011;38223;50.940;4.034;2022-10-17T14:29:18;8.00;;;6.55;;
52266;SDS011;38223;50.940;4.034;2022-10-17T14:31:38;6.37;;;4.42;;
52266;SDS011;38223;50.940;4.034;2022-10-17T14:34:20;6.85;;;4.70;;
52266;SDS011;38223;50.940;4.034;2022-10-17T14:36:53;7.15;;;5.15;;
52266;SDS011;38223;50.940;4.034;2022-10-17T14:39:30;11.97;;;5.33;;
52266;SDS011;38223;50.940;4.034;2022-10-17T14:42:00;8.78;;;5.30;;
52266;SDS011;38223;50.940;4.034;2022-10-17T14:44:33;6.70;;;4.30;;
52266;SDS011;38223;50.940;4.034;2022-10-17T14:47:06;8.18;;;4.80;;
52266;SDS011;38223;50.940;4.034;2022-10-17T14:49:39;8.90;;;5.15;;
52266;SDS011;38223;50.940;4.034;2022-10-17T14:54:49;9.50;;;5.42;;
52266;SDS011;38223;50.940;4.034;2022-10-17T14:57:39;8.40;;;5.80;;
52266;SDS011;38223;50.940;4.034;2022-10-17T15:00:02;5.47;;;4.55;;
52266;SDS011;38223;50.940;4.034;2022-10-17T15:02:35;6.72;;;5.25;;
52266;SDS011;38223;50.940;4.034;2022-10-17T15:05:05;5.87;;;4.90;;
52266;SDS011;38223;50.940;4.034;2022-10-17T15:07:37;8.25;;;4.72;;
52266;SDS011;38223;50.940;4.034;2022-10-17T15:10:30;6.97;;;5.40;;
52266;SDS011;38223;50.940;4.034;2022-10-17T15:12:58;7.47;;;5.83;;
52266;SDS011;38223;50.940;4.034;2022-10-17T15:15:35;7.20;;;5.30;;
52266;SDS011;38223;50.940;4.034;2022-10-17T15:18:10;9.78;;;5.40;;
52266;SDS011;38223;50.940;4.034;2022-10-17T15:20:45;7.67;;;4.97;;
52266;SDS011;38223;50.940;4.034;2022-10-17T15:23:22;7.33;;;5.10;;
52266;SDS011;38223;50.940;4.034;2022-10-17T15:25:59;8.50;;;6.15;;
52266;SDS011;38223;50.940;4.034;2022-10-17T15:28:31;5.53;;;4.80;;
52266;SDS011;38223;50.940;4.034;2022-10-17T15:31:03;7.55;;;5.42;;
52266;SDS011;38223;50.940;4.034;2022-10-17T15:33:35;9.23;;;5.15;;
52266;SDS011;38223;50.940;4.034;2022-10-17T15:36:03;9.28;;;6.50;;
52266;SDS011;38223;50.940;4.034;2022-10-17T15:38:35;17.00;;;10.18;;
52266;SDS011;38223;50.940;4.034;2022-10-17T15:41:08;10.32;;;6.30;;
52266;SDS011;38223;50.940;4.034;2022-10-17T15:43:43;10.50;;;6.58;;
52266;SDS011;38223;50.940;4.034;2022-10-17T15:46:15;9.60;;;7.08;;
52266;SDS011;38223;50.940;4.034;2022-10-17T15:48:45;5.80;;;5.20;;
52266;SDS011;38223;50.940;4.034;2022-10-17T15:51:21;7.65;;;6.35;;
52266;SDS011;38223;50.940;4.034;2022-10-17T15:53:52;7.25;;;5.00;;
52266;SDS011;38223;50.940;4.034;2022-10-17T15:56:29;8.00;;;5.30;;
52266;SDS011;38223;50.940;4.034;2022-10-17T15:59:04;5.30;;;4.60;;
52266;SDS011;38223;50.940;4.034;2022-10-17T16:01:38;5.47;;;4.83;;
52266;SDS011;38223;50.940;4.034;2022-10-17T16:04:11;6.87;;;5.58;;
52266;SDS011;38223;50.940;4.034;2022-10-17T16:06:43;7.83;;;5.28;;
52266;SDS011;38223;50.940;4.034;2022-10-17T16:09:17;6.30;;;5.47;;
52266;SDS011;38223;50.940;4.034;2022-10-17T16:11:47;9.75;;;5.65;;
52266;SDS011;38223;50.940;4.034;2022-10-17T16:14:21;7.17;;;6.47;;
52266;SDS011;38223;50.940;4.034;2022-10-17T16:17:01;9.15;;;8.35;;
52266;SDS011;38223;50.940;4.034;2022-10-17T16:19:32;9.83;;;6.45;;
52266;SDS011;38223;50.940;4.034;2022-10-17T16:22:04;7.15;;;6.10;;
52266;SDS011;38223;50.940;4.034;2022-10-17T16:24:38;10.00;;;5.22;;
52266;SDS011;38223;50.940;4.034;2022-10-17T16:27:12;8.68;;;5.17;;
52266;SDS011;38223;50.940;4.034;2022-10-17T16:29:44;6.08;;;5.58;;
52266;SDS011;38223;50.940;4.034;2022-10-17T16:32:14;8.50;;;6.47;;
52266;SDS011;38223;50.940;4.034;2022-10-17T16:34:47;10.43;;;6.83;;
52266;SDS011;38223;50.940;4.034;2022-10-17T16:37:24;12.20;;;6.60;;
52266;SDS011;38223;50.940;4.034;2022-10-17T16:40:00;9.73;;;7.25;;
52266;SDS011;38223;50.940;4.034;2022-10-17T16:42:32;12.65;;;7.15;;
52266;SDS011;38223;50.940;4.034;2022-10-17T16:45:05;14.90;;;10.80;;
52266;SDS011;38223;50.940;4.034;2022-10-17T16:47:37;15.40;;;8.63;;
52266;SDS011;38223;50.940;4.034;2022-10-17T16:50:10;7.92;;;6.97;;
52266;SDS011;38223;50.940;4.034;2022-10-17T16:52:44;8.25;;;6.97;;
52266;SDS011;38223;50.940;4.034;2022-10-17T16:55:15;8.73;;;7.05;;
52266;SDS011;38223;50.940;4.034;2022-10-17T16:57:48;8.20;;;7.40;;
52266;SDS011;38223;50.940;4.034;2022-10-17T17:00:22;19.87;;;12.88;;
52266;SDS011;38223;50.940;4.034;2022-10-17T17:02:52;19.57;;;15.53;;
52266;SDS011;38223;50.940;4.034;2022-10-17T17:05:27;19.73;;;16.05;;
52266;SDS011;38223;50.940;4.034;2022-10-17T17:08:01;20.80;;;17.15;;
52266;SDS011;38223;50.940;4.034;2022-10-17T17:10:34;27.70;;;18.55;;
52266;SDS011;38223;50.940;4.034;2022-10-17T17:13:05;15.78;;;12.68;;
52266;SDS011;38223;50.940;4.034;2022-10-17T17:15:40;13.62;;;12.25;;
52266;SDS011;38223;50.940;4.034;2022-10-17T17:18:13;13.00;;;9.78;;
52266;SDS011;38223;50.940;4.034;2022-10-17T17:20:45;12.65;;;11.35;;
52266;SDS011;38223;50.940;4.034;2022-10-17T17:23:17;12.35;;;9.75;;
52266;SDS011;38223;50.940;4.034;2022-10-17T17:26:00;10.65;;;8.68;;